createdAt,value
2018-07-28T00:00:41.330Z,6.17
2018-07-28T00:03:10.684Z,6.90
2018-07-28T00:05:39.981Z,7.03
2018-07-28T00:08:09.310Z,6.27
2018-07-28T00:10:38.764Z,7.43
2018-07-28T00:13:08.142Z,6.87
2018-07-28T00:15:37.761Z,7.57
2018-07-28T00:18:07.292Z,7.60
2018-07-28T00:20:36.673Z,8.17
2018-07-28T00:23:06.225Z,7.83
2018-07-28T00:25:39.177Z,8.10
2018-07-28T00:28:08.746Z,8.10
2018-07-28T00:30:37.903Z,7.10
2018-07-28T00:33:07.253Z,8.10
2018-07-28T00:35:36.293Z,7.67
2018-07-28T00:38:05.639Z,8.23
2018-07-28T00:40:34.944Z,7.73
2018-07-28T00:43:04.321Z,7.60
2018-07-28T00:45:33.681Z,8.67
2018-07-28T00:48:03.106Z,7.93
2018-07-28T00:50:32.667Z,9.20
2018-07-28T00:53:02.094Z,8.57
2018-07-28T00:55:36.232Z,8.30
2018-07-28T00:58:06.489Z,8.67
2018-07-28T01:00:35.782Z,8.10
2018-07-28T01:03:05.234Z,8.03
2018-07-28T01:05:34.792Z,7.60
2018-07-28T01:08:04.253Z,8.37
2018-07-28T01:10:34.008Z,7.03
2018-07-28T01:13:03.430Z,7.57
2018-07-28T01:15:32.928Z,6.50
2018-07-28T01:18:02.334Z,7.87
2018-07-28T01:20:31.694Z,7.30
2018-07-28T01:23:01.107Z,8.70
2018-07-28T01:25:30.538Z,8.27
2018-07-28T01:27:59.884Z,7.43
2018-07-28T01:30:31.606Z,6.27
2018-07-28T01:33:01.916Z,6.80
2018-07-28T01:35:31.159Z,7.40
2018-07-28T01:38:00.597Z,8.37
2018-07-28T01:40:29.953Z,7.87
2018-07-28T01:42:59.306Z,8.53
2018-07-28T01:45:28.828Z,6.73
2018-07-28T01:47:58.143Z,6.73
2018-07-28T01:50:27.804Z,7.97
2018-07-28T01:52:57.228Z,7.90
2018-07-28T01:55:26.541Z,5.90
2018-07-28T01:57:55.769Z,7.00
2018-07-28T02:00:25.171Z,7.43
2018-07-28T02:02:55.489Z,6.70
2018-07-28T02:05:24.789Z,6.33
2018-07-28T02:07:54.237Z,6.20
2018-07-28T02:10:23.565Z,6.77
2018-07-28T02:12:52.936Z,6.77
2018-07-28T02:15:22.355Z,7.00
2018-07-28T02:17:51.821Z,7.80
2018-07-28T02:20:21.355Z,8.80
2018-07-28T02:22:51.667Z,7.63
2018-07-28T02:25:21.143Z,8.30
2018-07-28T02:27:50.420Z,8.40
2018-07-28T02:30:19.885Z,7.60
2018-07-28T02:32:49.362Z,9.90
2018-07-28T02:35:18.571Z,10.30
2018-07-28T02:37:47.847Z,9.67
2018-07-28T02:40:17.209Z,9.80
2018-07-28T02:42:46.662Z,9.33
2018-07-28T02:45:16.961Z,9.37
2018-07-28T02:47:46.362Z,8.60
2018-07-28T02:50:15.801Z,8.97
2018-07-28T02:52:45.484Z,7.67
2018-07-28T02:55:14.862Z,7.90
2018-07-28T02:57:44.561Z,8.03
2018-07-28T03:00:16.621Z,9.10
2018-07-28T03:02:46.173Z,9.43
2018-07-28T03:05:15.797Z,10.47
2018-07-28T03:07:46.445Z,10.40
2018-07-28T03:10:16.581Z,10.97
2018-07-28T03:12:46.603Z,11.20
2018-07-28T03:15:33.051Z,11.33
2018-07-28T03:18:04.809Z,11.50
2018-07-28T03:20:34.188Z,10.90
2018-07-28T03:23:04.076Z,12.23
2018-07-28T03:25:33.410Z,12.37
2018-07-28T03:28:02.883Z,12.13
2018-07-28T03:30:32.245Z,11.63
2018-07-28T03:33:01.749Z,11.70
2018-07-28T03:35:30.997Z,11.33
2018-07-28T03:38:00.363Z,11.87
2018-07-28T03:40:29.835Z,9.50
2018-07-28T03:42:59.277Z,9.20
2018-07-28T03:45:28.737Z,9.10
2018-07-28T03:47:58.099Z,8.77
2018-07-28T03:50:28.021Z,8.37
2018-07-28T03:52:59.650Z,8.97
2018-07-28T03:55:28.671Z,9.37
2018-07-28T03:57:57.770Z,9.53
2018-07-28T04:00:26.978Z,10.63
2018-07-28T04:02:55.952Z,9.13
2018-07-28T04:05:25.093Z,9.33
2018-07-28T04:07:54.850Z,10.77
2018-07-28T04:10:23.898Z,9.90
2018-07-28T04:12:52.897Z,9.80
2018-07-28T04:15:21.959Z,10.07
2018-07-28T04:17:53.088Z,9.30
2018-07-28T04:20:23.022Z,9.67
2018-07-28T04:22:52.604Z,10.83
2018-07-28T04:25:22.160Z,20.20
2018-07-28T04:27:51.507Z,21.40
2018-07-28T04:30:21.142Z,17.57
2018-07-28T04:32:50.179Z,15.60
2018-07-28T04:35:19.335Z,13.43
2018-07-28T04:37:48.482Z,15.00
2018-07-28T04:40:17.590Z,13.50
2018-07-28T04:42:46.715Z,13.27
2018-07-28T04:45:15.807Z,14.00
2018-07-28T04:47:45.658Z,15.20
2018-07-28T04:50:14.852Z,15.37
2018-07-28T04:52:44.071Z,13.80
2018-07-28T04:55:13.095Z,13.40
2018-07-28T04:57:42.486Z,12.83
2018-07-28T05:00:11.948Z,10.80
2018-07-28T05:02:41.102Z,9.70
2018-07-28T05:05:10.200Z,10.70
2018-07-28T05:07:39.505Z,9.77
2018-07-28T05:10:08.497Z,10.40
2018-07-28T05:12:37.572Z,10.90
2018-07-28T05:15:07.564Z,11.57
2018-07-28T05:17:36.754Z,12.10
2018-07-28T05:20:06.694Z,14.30
2018-07-28T05:22:35.750Z,13.20
2018-07-28T05:25:04.934Z,13.03
2018-07-28T05:27:34.646Z,13.07
2018-07-28T05:30:04.158Z,12.80
2018-07-28T05:32:33.653Z,13.00
2018-07-28T05:35:02.992Z,13.13
2018-07-28T05:37:32.501Z,12.93
2018-07-28T05:40:02.558Z,13.60
2018-07-28T05:42:32.181Z,14.30
2018-07-28T05:45:01.610Z,14.57
2018-07-28T05:47:31.131Z,14.10
2018-07-28T05:50:01.402Z,12.60
2018-07-28T05:52:31.200Z,13.97
2018-07-28T05:55:00.765Z,15.53
2018-07-28T05:57:30.120Z,14.77
2018-07-28T06:00:00.801Z,14.30
2018-07-28T06:02:30.351Z,13.80
2018-07-28T06:04:59.656Z,14.30
2018-07-28T06:07:28.942Z,17.70
2018-07-28T06:09:58.349Z,14.97
2018-07-28T06:12:27.825Z,14.87
2018-07-28T06:14:57.241Z,17.40
2018-07-28T06:17:26.544Z,16.00
2018-07-28T06:19:56.095Z,14.80
2018-07-28T06:22:25.919Z,13.70
2018-07-28T06:24:55.458Z,15.13
2018-07-28T06:27:24.998Z,12.60
2018-07-28T06:29:54.715Z,12.37
2018-07-28T06:32:24.385Z,12.80
2018-07-28T06:34:53.712Z,12.63
2018-07-28T06:37:22.992Z,12.60
2018-07-28T06:39:52.602Z,13.50
2018-07-28T06:42:22.090Z,12.37
2018-07-28T06:44:51.531Z,11.83
2018-07-28T06:47:22.339Z,10.83
2018-07-28T06:49:52.305Z,10.30
2018-07-28T06:52:21.714Z,9.77
2018-07-28T06:54:51.076Z,10.23
2018-07-28T06:57:20.915Z,10.30
2018-07-28T06:59:50.359Z,10.43
2018-07-28T07:02:19.793Z,10.90
2018-07-28T07:04:49.206Z,11.37
2018-07-28T07:07:18.714Z,9.43
2018-07-28T07:09:48.214Z,9.47
2018-07-28T07:12:17.918Z,9.53
2018-07-28T07:14:48.411Z,8.87
2018-07-28T07:17:18.352Z,9.70
2018-07-28T07:19:48.025Z,8.93
2018-07-28T07:22:17.446Z,8.83
2018-07-28T07:24:47.099Z,8.47
2018-07-28T07:27:16.980Z,9.13
2018-07-28T07:29:46.716Z,10.00
2018-07-28T07:32:16.142Z,9.53
2018-07-28T07:34:45.636Z,9.53
2018-07-28T07:37:16.716Z,9.10
2018-07-28T07:39:47.603Z,10.10
2018-07-28T07:42:17.885Z,8.40
2018-07-28T07:44:47.473Z,9.03
2018-07-28T07:47:17.109Z,9.60
2018-07-28T07:49:47.199Z,8.17
2018-07-28T07:52:16.528Z,8.23
2018-07-28T07:54:45.856Z,7.97
2018-07-28T07:57:14.944Z,8.03
2018-07-28T07:59:45.633Z,7.40
2018-07-28T08:02:15.082Z,7.50
2018-07-28T08:04:44.405Z,7.60
2018-07-28T08:07:14.005Z,7.97
2018-07-28T08:09:43.267Z,7.97
2018-07-28T08:12:12.743Z,7.70
2018-07-28T08:14:42.476Z,7.90
2018-07-28T08:17:11.919Z,7.23
2018-07-28T08:19:41.334Z,7.10
2018-07-28T08:22:10.990Z,8.20
2018-07-28T08:24:40.471Z,7.87
2018-07-28T08:27:10.107Z,7.87
2018-07-28T08:29:39.599Z,7.60
2018-07-28T08:32:09.507Z,8.13
2018-07-28T08:34:38.904Z,7.13
2018-07-28T08:37:08.338Z,7.87
2018-07-28T08:39:37.645Z,9.57
2018-07-28T08:42:07.113Z,8.50
2018-07-28T08:44:36.348Z,8.50
2018-07-28T08:47:06.549Z,9.03
2018-07-28T08:49:35.990Z,7.47
2018-07-28T08:52:05.730Z,7.67
2018-07-28T08:54:35.373Z,8.43
2018-07-28T08:57:06.554Z,7.60
2018-07-28T08:59:36.475Z,7.47
2018-07-28T09:02:05.879Z,7.37
2018-07-28T09:04:35.938Z,6.53
2018-07-28T09:07:05.396Z,7.23
2018-07-28T09:09:35.460Z,6.63
2018-07-28T09:12:05.431Z,6.87
2018-07-28T09:14:34.872Z,7.60
2018-07-28T09:17:05.098Z,6.20
2018-07-28T09:19:35.266Z,6.73
2018-07-28T09:22:05.044Z,6.53
2018-07-28T09:24:34.610Z,6.60
2018-07-28T09:27:04.062Z,6.60
2018-07-28T09:29:33.481Z,6.90
2018-07-28T09:32:02.992Z,6.30
2018-07-28T09:34:32.448Z,6.47
2018-07-28T09:37:01.977Z,6.40
2018-07-28T09:39:31.408Z,7.40
2018-07-28T09:42:00.905Z,7.00
2018-07-28T09:44:30.219Z,8.50
2018-07-28T09:46:59.582Z,10.33
2018-07-28T09:49:29.101Z,7.73
2018-07-28T09:51:58.664Z,8.20
2018-07-28T09:54:29.553Z,7.53
2018-07-28T09:56:58.963Z,6.20
2018-07-28T09:59:28.521Z,5.20
2018-07-28T10:01:58.210Z,6.27
2018-07-28T10:04:27.666Z,6.30
2018-07-28T10:06:57.422Z,5.90
2018-07-28T10:09:26.928Z,6.07
2018-07-28T10:11:56.393Z,7.20
2018-07-28T10:14:25.940Z,6.30
2018-07-28T10:16:55.435Z,6.90
2018-07-28T10:19:24.992Z,7.20
2018-07-28T10:21:54.114Z,6.90
2018-07-28T10:24:23.157Z,6.50
2018-07-28T10:26:52.132Z,6.77
2018-07-28T10:29:21.253Z,6.70
2018-07-28T10:31:50.443Z,5.63
2018-07-28T10:34:19.936Z,7.20
2018-07-28T10:36:49.613Z,6.40
2018-07-28T10:39:19.216Z,6.53
2018-07-28T10:41:48.560Z,6.23
2018-07-28T10:44:17.890Z,6.37
2018-07-28T10:46:47.269Z,6.93
2018-07-28T10:49:16.853Z,6.30
2018-07-28T10:51:46.591Z,6.70
2018-07-28T10:54:16.174Z,6.57
2018-07-28T10:56:45.534Z,6.20
2018-07-28T10:59:15.028Z,7.23
2018-07-28T11:01:44.517Z,6.27
2018-07-28T11:04:13.828Z,7.10
2018-07-28T11:06:43.356Z,6.23
2018-07-28T11:09:12.828Z,6.07
2018-07-28T11:11:42.463Z,6.80
2018-07-28T11:14:11.972Z,6.10
2018-07-28T11:16:41.935Z,6.37
2018-07-28T11:19:11.336Z,5.93
2018-07-28T11:21:40.798Z,7.23
2018-07-28T11:24:11.135Z,6.60
2018-07-28T11:26:40.769Z,6.30
2018-07-28T11:29:10.272Z,6.60
2018-07-28T11:31:50.878Z,5.90
2018-07-28T11:34:31.075Z,5.67
2018-07-28T11:37:11.153Z,6.33
2018-07-28T11:39:51.392Z,6.67
2018-07-28T11:42:31.713Z,6.40
2018-07-28T11:45:06.172Z,6.10
2018-07-28T11:47:36.058Z,6.03
2018-07-28T11:50:05.472Z,6.53
2018-07-28T11:52:35.342Z,6.50
2018-07-28T11:55:04.924Z,5.93
2018-07-28T11:57:34.293Z,6.10
2018-07-28T12:00:03.732Z,6.53
2018-07-28T12:02:33.304Z,6.10
2018-07-28T12:05:02.700Z,5.00
2018-07-28T12:07:32.141Z,6.60
2018-07-28T12:10:01.639Z,5.53
2018-07-28T12:12:31.220Z,5.73
2018-07-28T12:15:01.560Z,5.50
2018-07-28T12:17:31.315Z,5.80
2018-07-28T12:20:00.777Z,5.37
2018-07-28T12:22:30.215Z,5.10
2018-07-28T12:25:00.444Z,4.90
2018-07-28T12:27:29.971Z,4.70
2018-07-28T12:29:59.453Z,4.80
2018-07-28T12:32:28.939Z,5.40
2018-07-28T12:34:58.576Z,4.40
2018-07-28T12:37:27.827Z,4.80
2018-07-28T12:39:57.326Z,4.37
2018-07-28T12:42:26.754Z,4.17
2018-07-28T12:44:56.072Z,4.13
2018-07-28T12:47:25.405Z,5.13
2018-07-28T12:49:54.661Z,4.00
2018-07-28T12:52:24.924Z,4.00
2018-07-28T12:54:57.505Z,3.90
2018-07-28T12:57:27.230Z,4.00
2018-07-28T12:59:57.398Z,4.10
2018-07-28T13:02:27.015Z,4.90
2018-07-28T13:04:56.606Z,4.07
2018-07-28T13:07:26.399Z,4.47
2018-07-28T13:09:57.460Z,4.87
2018-07-28T13:12:26.861Z,4.30
2018-07-28T13:14:56.273Z,4.00
2018-07-28T13:17:26.327Z,4.07
2018-07-28T13:19:56.564Z,4.93
2018-07-28T13:22:26.832Z,4.47
2018-07-28T13:24:56.120Z,4.47
2018-07-28T13:27:26.020Z,5.30
2018-07-28T13:29:55.931Z,4.70
2018-07-28T13:32:26.135Z,3.80
2018-07-28T13:34:55.436Z,4.23
2018-07-28T13:37:24.733Z,5.17
2018-07-28T13:39:54.159Z,4.73
2018-07-28T13:42:23.664Z,4.70
2018-07-28T13:44:53.169Z,4.47
2018-07-28T13:47:22.578Z,4.40
2018-07-28T13:49:52.056Z,5.07
2018-07-28T13:52:21.438Z,5.37
2018-07-28T13:54:51.013Z,4.17
2018-07-28T13:57:20.323Z,4.90
2018-07-28T13:59:49.676Z,5.37
2018-07-28T14:02:20.461Z,4.23
2018-07-28T14:04:50.317Z,5.10
2018-07-28T14:07:19.863Z,4.83
2018-07-28T14:09:49.362Z,5.07
2018-07-28T14:12:19.036Z,4.60
2018-07-28T14:14:49.431Z,4.80
2018-07-28T14:17:18.958Z,5.10
2018-07-28T14:19:49.044Z,4.43
2018-07-28T14:22:18.485Z,3.90
2018-07-28T14:24:47.851Z,4.60
2018-07-28T14:27:17.264Z,4.83
2018-07-28T14:29:46.905Z,4.53
2018-07-28T14:32:17.205Z,4.47
2018-07-28T14:34:46.737Z,4.23
2018-07-28T14:37:16.280Z,4.30
2018-07-28T14:39:45.645Z,4.60
2018-07-28T14:42:14.975Z,5.00
2018-07-28T14:44:44.454Z,5.70
2018-07-28T14:47:13.880Z,4.80
2018-07-28T14:49:43.190Z,4.37
2018-07-28T14:52:13.419Z,4.50
2018-07-28T14:54:42.950Z,4.30
2018-07-28T14:57:12.408Z,5.37
2018-07-28T14:59:41.860Z,5.07
2018-07-28T15:02:11.369Z,4.93
2018-07-28T15:04:42.154Z,5.30
2018-07-28T15:07:11.791Z,4.90
2018-07-28T15:09:41.133Z,4.33
2018-07-28T15:12:10.819Z,5.63
2018-07-28T15:14:40.278Z,5.50
2018-07-28T15:17:09.699Z,4.40
2018-07-28T15:19:39.212Z,5.30
2018-07-28T15:22:08.864Z,5.57
2018-07-28T15:24:38.679Z,4.97
2018-07-28T15:27:08.486Z,5.40
2018-07-28T15:29:38.294Z,5.07
2018-07-28T15:32:07.750Z,5.27
2018-07-28T15:34:37.295Z,5.63
2018-07-28T15:37:08.160Z,4.90
2018-07-28T15:39:37.439Z,5.27
2018-07-28T15:42:06.987Z,5.90
2018-07-28T15:44:36.995Z,5.33
2018-07-28T15:47:06.435Z,5.57
2018-07-28T15:49:36.511Z,5.67
2018-07-28T15:52:05.901Z,5.77
2018-07-28T15:54:35.245Z,5.80
2018-07-28T15:57:04.899Z,5.13
2018-07-28T15:59:34.339Z,4.53
2018-07-28T16:02:03.638Z,5.03
2018-07-28T16:04:32.992Z,5.13
2018-07-28T16:07:02.780Z,5.47
2018-07-28T16:09:32.136Z,4.60
2018-07-28T16:12:01.449Z,5.17
2018-07-28T16:14:30.774Z,4.90
2018-07-28T16:17:00.094Z,5.20
2018-07-28T16:19:29.551Z,6.20
2018-07-28T16:21:59.180Z,5.37
2018-07-28T16:24:29.023Z,5.40
2018-07-28T16:26:58.994Z,5.40
2018-07-28T16:29:29.013Z,4.77
2018-07-28T16:32:00.354Z,5.00
2018-07-28T16:34:30.793Z,5.33
2018-07-28T16:37:00.432Z,5.33
2018-07-28T16:39:30.930Z,5.30
2018-07-28T16:42:00.338Z,5.47
2018-07-28T16:44:29.814Z,5.30
2018-07-28T16:46:59.305Z,6.13
2018-07-28T16:49:28.654Z,5.97
2018-07-28T16:51:58.291Z,5.10
2018-07-28T16:54:27.951Z,5.13
2018-07-28T16:56:57.285Z,5.30
2018-07-28T16:59:27.038Z,5.10
2018-07-28T17:01:56.768Z,4.57
2018-07-28T17:04:27.467Z,5.33
2018-07-28T17:06:56.946Z,5.33
2018-07-28T17:09:26.824Z,5.10
2018-07-28T17:11:56.255Z,5.60
2018-07-28T17:14:25.743Z,4.60
2018-07-28T17:16:55.163Z,4.90
2018-07-28T17:19:24.727Z,4.83
2018-07-28T17:21:54.308Z,4.83
2018-07-28T17:24:24.615Z,5.43
2018-07-28T17:26:54.221Z,5.30
2018-07-28T17:29:23.469Z,4.97
2018-07-28T17:31:52.765Z,4.07
2018-07-28T17:34:22.116Z,5.47
2018-07-28T17:36:51.416Z,4.20
2018-07-28T17:39:20.674Z,5.20
2018-07-28T17:41:50.783Z,5.03
2018-07-28T17:44:20.177Z,4.93
2018-07-28T17:46:49.666Z,5.20
2018-07-28T17:49:19.172Z,5.00
2018-07-28T17:51:49.383Z,4.63
2018-07-28T17:54:20.263Z,4.70
2018-07-28T17:56:54.250Z,4.73
2018-07-28T17:59:26.105Z,4.87
2018-07-28T18:01:56.663Z,5.67
2018-07-28T18:04:26.856Z,4.73
2018-07-28T18:07:00.539Z,4.37
2018-07-28T18:09:31.742Z,4.97
2018-07-28T18:12:01.776Z,5.30
2018-07-28T18:14:32.489Z,4.40
2018-07-28T18:17:03.913Z,5.03
2018-07-28T18:19:33.510Z,4.80
2018-07-28T18:22:03.311Z,4.97
2018-07-28T18:24:32.883Z,4.80
2018-07-28T18:27:02.166Z,4.07
2018-07-28T18:29:31.389Z,4.80
2018-07-28T18:32:00.668Z,4.70
2018-07-28T18:34:30.109Z,5.00
2018-07-28T18:36:59.670Z,4.70
2018-07-28T18:39:28.995Z,4.90
2018-07-28T18:41:58.571Z,4.97
2018-07-28T18:44:28.028Z,5.33
2018-07-28T18:46:57.475Z,5.70
2018-07-28T18:49:27.802Z,5.00
2018-07-28T18:51:58.877Z,4.70
2018-07-28T18:54:29.406Z,4.83
2018-07-28T18:56:58.934Z,4.70
2018-07-28T18:59:28.483Z,5.87
2018-07-28T19:01:57.903Z,5.43
2018-07-28T19:04:27.911Z,5.27
2018-07-28T19:06:57.633Z,5.33
2018-07-28T19:09:32.265Z,4.77
2018-07-28T19:12:07.450Z,5.67
2018-07-28T19:14:39.586Z,5.43
2018-07-28T19:17:09.517Z,5.70
2018-07-28T19:19:39.168Z,5.40
2018-07-28T19:22:14.178Z,5.03
2018-07-28T19:24:44.419Z,6.20
2018-07-28T19:27:13.926Z,5.47
2018-07-28T19:29:44.820Z,5.17
2018-07-28T19:32:14.919Z,5.10
2018-07-28T19:34:44.082Z,5.30
2018-07-28T19:37:18.991Z,5.73
2018-07-28T19:39:48.573Z,5.50
2018-07-28T19:42:23.123Z,6.20
2018-07-28T19:44:52.890Z,6.13
2018-07-28T19:47:22.642Z,5.40
2018-07-28T19:49:59.269Z,5.97
2018-07-28T19:52:28.819Z,6.03
2018-07-28T19:55:01.957Z,7.40
2018-07-28T19:57:39.552Z,5.93
2018-07-28T20:00:17.056Z,6.37
2018-07-28T20:02:46.499Z,5.17
2018-07-28T20:05:15.806Z,5.90
2018-07-28T20:07:45.336Z,6.40
2018-07-28T20:10:15.002Z,5.73
2018-07-28T20:12:44.644Z,7.17
2018-07-28T20:15:14.457Z,6.17
2018-07-28T20:17:44.140Z,5.83
2018-07-28T20:20:13.798Z,6.03
2018-07-28T20:22:43.251Z,5.90
2018-07-28T20:25:12.510Z,5.63
2018-07-28T20:27:42.070Z,5.50
2018-07-28T20:30:13.711Z,5.97
2018-07-28T20:32:44.314Z,6.27
2018-07-28T20:35:13.819Z,6.40
2018-07-28T20:37:43.241Z,6.63
2018-07-28T20:40:13.531Z,5.53
2018-07-28T20:42:44.217Z,6.20
2018-07-28T20:45:13.516Z,7.00
2018-07-28T20:47:42.823Z,6.13
2018-07-28T20:50:12.984Z,6.87
2018-07-28T20:52:43.099Z,5.93
2018-07-28T20:55:12.507Z,7.27
2018-07-28T20:57:42.236Z,6.90
2018-07-28T21:00:11.987Z,6.53
2018-07-28T21:02:41.382Z,6.43
2018-07-28T21:05:10.929Z,6.93
2018-07-28T21:07:40.471Z,6.40
2018-07-28T21:10:10.032Z,5.77
2018-07-28T21:12:39.349Z,5.87
2018-07-28T21:15:08.700Z,7.07
2018-07-28T21:17:39.265Z,6.27
2018-07-28T21:20:09.427Z,6.90
2018-07-28T21:22:39.790Z,6.80
2018-07-28T21:25:09.301Z,6.40
2018-07-28T21:27:39.293Z,6.03
2018-07-28T21:30:08.636Z,6.53
2018-07-28T21:32:38.392Z,8.47
2018-07-28T21:35:07.902Z,6.70
2018-07-28T21:37:37.346Z,7.27
2018-07-28T21:40:06.903Z,7.07
2018-07-28T21:42:36.334Z,7.57
2018-07-28T21:45:05.930Z,8.60
2018-07-28T21:47:35.215Z,8.43
2018-07-28T21:50:05.124Z,8.53
2018-07-28T21:52:34.717Z,9.17
2018-07-28T21:55:04.196Z,9.10
2018-07-28T21:57:33.727Z,9.07
2018-07-28T22:00:03.155Z,9.70
2018-07-28T22:02:32.716Z,8.77
2018-07-28T22:05:02.351Z,8.63
2018-07-28T22:07:31.675Z,9.70
2018-07-28T22:10:01.000Z,7.77
2018-07-28T22:12:30.461Z,8.07
2018-07-28T22:15:00.000Z,8.17
2018-07-28T22:17:29.380Z,7.60
2018-07-28T22:20:01.032Z,6.23
2018-07-28T22:22:32.074Z,7.57
2018-07-28T22:25:02.985Z,7.30
2018-07-28T22:27:34.550Z,8.13
2018-07-28T22:30:04.639Z,7.07
2018-07-28T22:32:34.061Z,7.17
2018-07-28T22:35:03.431Z,7.63
2018-07-28T22:37:32.765Z,7.80
2018-07-28T22:40:02.352Z,8.33
2018-07-28T22:42:42.355Z,7.53
2018-07-28T22:45:11.657Z,7.07
2018-07-28T22:47:41.286Z,8.30
2018-07-28T22:50:10.572Z,6.77
2018-07-28T22:52:40.001Z,7.27
2018-07-28T22:55:09.398Z,7.23
2018-07-28T22:57:38.895Z,6.77
2018-07-28T23:00:08.744Z,6.17
2018-07-28T23:02:38.841Z,6.50
2018-07-28T23:05:09.220Z,6.63
2018-07-28T23:07:38.747Z,6.23
2018-07-28T23:10:08.220Z,6.93
2018-07-28T23:12:38.147Z,6.23
2018-07-28T23:15:07.687Z,7.03
2018-07-28T23:17:37.002Z,5.67
2018-07-28T23:20:06.539Z,6.60
2018-07-28T23:22:35.863Z,7.80
2018-07-28T23:25:05.470Z,6.00
2018-07-28T23:27:34.930Z,7.80
2018-07-28T23:30:04.408Z,6.57
2018-07-28T23:32:33.733Z,7.50
2018-07-28T23:35:03.282Z,6.20
2018-07-28T23:37:32.762Z,7.50
2018-07-28T23:40:02.401Z,6.70
2018-07-28T23:42:31.931Z,6.90
2018-07-28T23:45:01.368Z,7.27
2018-07-28T23:47:30.616Z,7.30
2018-07-28T23:50:00.050Z,7.33
2018-07-28T23:52:31.331Z,8.07
2018-07-28T23:55:01.196Z,6.73
2018-07-28T23:57:30.422Z,6.10
